createdAt,value
2019-01-25T00:05:19.501Z,98.07
2019-01-25T00:11:25.235Z,102.70
2019-01-25T00:17:30.920Z,98.70
2019-01-25T00:23:36.611Z,93.70
2019-01-25T00:29:42.314Z,101.13
2019-01-25T00:35:48.105Z,101.67
2019-01-25T00:41:53.950Z,102.53
2019-01-25T00:47:59.786Z,108.07
2019-01-25T00:54:06.099Z,103.20
2019-01-25T01:00:17.437Z,100.70
2019-01-25T01:06:23.374Z,107.93
2019-01-25T01:12:29.080Z,105.03
2019-01-25T01:18:35.134Z,100.50
2019-01-25T01:24:40.954Z,114.43
2019-01-25T01:30:46.641Z,100.97
2019-01-25T01:36:52.400Z,102.90
2019-01-25T01:42:58.072Z,108.03
2019-01-25T01:49:04.011Z,107.40
2019-01-25T01:55:10.341Z,105.50
2019-01-25T02:01:16.127Z,112.93
2019-01-25T02:07:21.904Z,106.70
2019-01-25T02:13:27.734Z,106.00
2019-01-25T02:19:33.414Z,103.03
2019-01-25T02:25:39.137Z,106.33
2019-01-25T02:31:44.876Z,105.90
2019-01-25T02:37:50.988Z,103.37
2019-01-25T02:43:56.652Z,109.03
2019-01-25T02:50:02.463Z,115.43
2019-01-25T02:56:08.486Z,109.07
2019-01-25T03:02:14.456Z,111.50
2019-01-25T03:08:20.502Z,106.50
2019-01-25T03:14:26.218Z,114.40
2019-01-25T03:20:32.053Z,101.43
2019-01-25T03:26:38.345Z,110.67
2019-01-25T03:32:44.070Z,109.93
2019-01-25T03:38:49.781Z,104.23
2019-01-25T03:44:55.465Z,107.27
2019-01-25T03:51:01.172Z,104.37
2019-01-25T03:57:06.979Z,111.20
2019-01-25T04:03:12.857Z,105.00
2019-01-25T04:09:22.505Z,107.10
2019-01-25T04:15:31.608Z,102.40
2019-01-25T04:21:37.319Z,102.40
2019-01-25T04:27:43.121Z,103.10
2019-01-25T04:33:48.830Z,90.23
2019-01-25T04:39:54.650Z,97.13
2019-01-25T04:46:00.508Z,95.30
2019-01-25T04:52:13.834Z,96.33
2019-01-25T04:58:20.623Z,102.30
2019-01-25T05:04:28.329Z,100.17
2019-01-25T05:10:34.210Z,103.23
2019-01-25T05:16:40.159Z,108.73
2019-01-25T05:22:46.075Z,102.33
2019-01-25T05:28:52.033Z,106.03
2019-01-25T05:34:58.014Z,99.53
2019-01-25T05:41:04.069Z,105.07
2019-01-25T05:47:12.027Z,99.07
2019-01-25T05:53:18.004Z,102.50
2019-01-25T05:59:26.190Z,102.93
2019-01-25T06:05:32.221Z,104.60
2019-01-25T06:11:39.359Z,103.07
2019-01-25T06:17:45.240Z,106.40
2019-01-25T06:23:55.025Z,99.40
2019-01-25T06:30:00.818Z,106.93
2019-01-25T06:36:08.370Z,105.27
2019-01-25T06:42:14.371Z,111.70
2019-01-25T06:48:20.875Z,111.37
2019-01-25T06:54:26.838Z,104.97
2019-01-25T07:00:34.932Z,111.97
2019-01-25T07:06:40.760Z,116.50
2019-01-25T07:12:46.651Z,107.37
2019-01-25T07:18:52.436Z,116.47
2019-01-25T07:24:58.265Z,112.90
2019-01-25T07:31:04.114Z,121.40
2019-01-25T07:37:09.867Z,117.60
2019-01-25T07:43:15.855Z,126.03
2019-01-25T07:49:21.809Z,120.97
2019-01-25T07:55:33.768Z,132.80
2019-01-25T08:01:40.144Z,137.67
2019-01-25T08:07:45.867Z,136.73
2019-01-25T08:13:51.769Z,142.43
2019-01-25T08:19:59.218Z,138.83
2019-01-25T08:26:05.463Z,132.70
2019-01-25T08:32:11.316Z,133.87
2019-01-25T08:38:17.585Z,137.67
2019-01-25T08:44:23.551Z,138.00
2019-01-25T08:50:29.416Z,137.80
2019-01-25T08:56:35.425Z,134.27
2019-01-25T09:02:41.599Z,134.30
2019-01-25T09:08:47.822Z,131.60
2019-01-25T09:14:54.088Z,130.60
2019-01-25T09:20:59.999Z,135.90
2019-01-25T09:27:06.061Z,133.53
2019-01-25T09:33:11.891Z,131.40
2019-01-25T09:39:17.883Z,144.17
2019-01-25T09:45:23.870Z,139.73
2019-01-25T09:51:29.732Z,137.30
2019-01-25T09:57:35.871Z,134.93
2019-01-25T10:03:42.019Z,132.87
2019-01-25T10:09:47.894Z,133.10
2019-01-25T10:15:54.621Z,132.83
2019-01-25T10:22:00.666Z,148.23
2019-01-25T10:28:06.492Z,141.10
2019-01-25T10:34:12.502Z,142.60
2019-01-25T10:40:19.998Z,135.20
2019-01-25T10:46:26.114Z,132.50
2019-01-25T10:52:32.131Z,129.63
2019-01-25T10:58:37.910Z,124.47
2019-01-25T11:04:49.810Z,131.73
2019-01-25T11:10:55.730Z,129.20
2019-01-25T11:17:01.734Z,121.70
2019-01-25T11:23:07.577Z,116.33
2019-01-25T11:29:13.379Z,109.70
2019-01-25T11:35:19.500Z,101.63
2019-01-25T11:41:25.676Z,92.30
2019-01-25T11:47:31.551Z,95.47
2019-01-25T11:53:37.971Z,93.90
2019-01-25T11:59:44.451Z,76.70
2019-01-25T12:05:50.272Z,78.13
2019-01-25T12:11:56.046Z,66.50
2019-01-25T12:18:02.125Z,50.50
2019-01-25T12:24:08.386Z,43.27
2019-01-25T12:30:45.482Z,36.53
2019-01-25T12:36:51.160Z,33.17
2019-01-25T12:42:58.169Z,33.00
2019-01-25T12:49:04.005Z,34.83
2019-01-25T12:55:10.546Z,32.77
2019-01-25T13:01:17.814Z,27.07
2019-01-25T13:07:23.792Z,31.33
2019-01-25T13:13:31.701Z,30.57
2019-01-25T13:19:37.527Z,28.10
2019-01-25T13:25:47.295Z,28.00
2019-01-25T13:31:51.776Z,28.87
2019-01-25T13:37:57.716Z,26.37
2019-01-25T13:44:03.873Z,23.20
2019-01-25T13:50:13.116Z,22.90
2019-01-25T13:56:19.312Z,23.40
2019-01-25T14:02:25.557Z,21.27
2019-01-25T14:08:34.011Z,24.07
2019-01-25T14:14:40.249Z,17.90
2019-01-25T14:20:50.348Z,21.03
2019-01-25T14:26:56.128Z,16.30
2019-01-25T14:33:02.167Z,16.33
2019-01-25T14:39:09.964Z,17.23
2019-01-25T14:45:16.647Z,18.03
2019-01-25T14:51:22.558Z,15.63
2019-01-25T14:57:28.476Z,16.70
2019-01-25T15:03:36.345Z,14.03
2019-01-25T15:09:42.099Z,15.03
2019-01-25T15:15:48.467Z,14.80
2019-01-25T15:21:54.564Z,15.33
2019-01-25T15:28:03.915Z,15.43
2019-01-25T15:34:16.517Z,16.00
2019-01-25T15:40:24.345Z,15.30
2019-01-25T15:46:30.345Z,15.10
2019-01-25T15:52:38.142Z,15.40
2019-01-25T15:58:44.079Z,14.97
2019-01-25T16:04:49.939Z,18.87
2019-01-25T16:10:56.060Z,18.13
2019-01-25T16:17:02.145Z,20.60
2019-01-25T16:23:08.060Z,21.50
2019-01-25T16:29:14.193Z,22.70
2019-01-25T16:35:20.083Z,25.23
2019-01-25T16:41:26.410Z,25.87
2019-01-25T16:47:33.353Z,31.47
2019-01-25T16:53:39.258Z,30.23
2019-01-25T16:59:45.167Z,33.53
2019-01-25T17:05:51.200Z,32.93
2019-01-25T17:11:57.016Z,38.27
2019-01-25T17:18:02.812Z,39.97
2019-01-25T17:24:08.612Z,36.83
2019-01-25T17:30:27.139Z,34.53
2019-01-25T17:36:33.236Z,39.10
2019-01-25T17:42:39.023Z,39.03
2019-01-25T17:48:45.054Z,40.97
2019-01-25T17:54:50.984Z,41.83
2019-01-25T18:00:57.485Z,41.13
2019-01-25T18:07:03.576Z,44.00
2019-01-25T18:13:09.434Z,35.30
2019-01-25T18:19:15.510Z,42.73
2019-01-25T18:25:44.503Z,33.43
2019-01-25T18:31:50.315Z,34.73
2019-01-25T18:37:56.283Z,35.27
2019-01-25T18:44:02.124Z,36.17
2019-01-25T18:50:10.406Z,35.77
2019-01-25T18:56:21.110Z,34.40
2019-01-25T19:02:28.965Z,38.97
2019-01-25T19:08:34.804Z,36.97
2019-01-25T19:14:46.125Z,34.60
2019-01-25T19:20:54.445Z,38.00
2019-01-25T19:27:01.128Z,33.97
2019-01-25T19:33:07.623Z,34.00
2019-01-25T19:39:17.300Z,31.43
2019-01-25T19:45:25.505Z,32.10
2019-01-25T19:51:31.355Z,29.27
2019-01-25T19:57:37.137Z,29.83
2019-01-25T20:03:43.179Z,31.97
2019-01-25T20:09:54.267Z,30.77
2019-01-25T20:16:00.236Z,30.30
2019-01-25T20:22:06.872Z,32.70
2019-01-25T20:28:13.042Z,34.13
2019-01-25T20:34:21.756Z,34.37
2019-01-25T20:40:27.616Z,32.67
2019-01-25T20:46:33.602Z,35.23
2019-01-25T20:52:40.604Z,39.67
2019-01-25T20:58:48.026Z,34.67
2019-01-25T21:04:54.761Z,37.37
2019-01-25T21:11:04.868Z,34.33
2019-01-25T21:17:11.956Z,36.73
2019-01-25T21:23:21.712Z,33.73
2019-01-25T21:29:30.170Z,30.80
2019-01-25T21:35:36.167Z,27.77
2019-01-25T21:41:41.882Z,28.77
2019-01-25T21:47:47.907Z,31.37
2019-01-25T21:53:53.799Z,31.57
2019-01-25T21:59:59.669Z,29.37
2019-01-25T22:06:06.257Z,31.00
2019-01-25T22:12:12.133Z,30.50
2019-01-25T22:18:18.081Z,24.60
2019-01-25T22:24:23.888Z,28.77
2019-01-25T22:30:29.910Z,27.23
2019-01-25T22:36:35.724Z,26.00
2019-01-25T22:42:41.516Z,27.77
2019-01-25T22:48:47.273Z,28.53
2019-01-25T22:54:53.145Z,29.20
2019-01-25T23:01:12.026Z,32.37
2019-01-25T23:07:27.641Z,30.90
2019-01-25T23:13:33.363Z,33.33
2019-01-25T23:19:39.197Z,37.47
2019-01-25T23:25:45.280Z,34.50
2019-01-25T23:31:52.902Z,36.60
2019-01-25T23:37:59.006Z,41.27
2019-01-25T23:44:05.132Z,45.83
2019-01-25T23:50:13.370Z,45.00
2019-01-25T23:56:19.176Z,48.47
